Air Resources Laboratory banner image
Air Resources Laboratory web site National Oceanic and Atmospheric Administration (NOAA)

pr metar


TJSJ 211656Z 07015KT 10SM FEW022 FEW034 28/23 A3002 RMK AO2 SLP164 VCSH S
 T02830233=